Terminal Aerodrome Forecast
Issued by NWS Wilmington, NC

Home | Current Version | Previous Version | Text Only | Print | Product List | Glossary On
Versions: 1 2 3 4 5 6 7 8 9 10 11 12 13 14 15 16 17 18 19 20
000
FTUS42 KILM 302340 CCA
TAFFLO
TAF COR
KFLO 302340Z 0100/0124 21009KT 5SM -SHRA BKN040
     FM010200 23004KT P6SM SCT060 SCT140
     FM011400 26008KT P6SM SCT070 SCT250=

USA.gov is the U.S. government's official web portal to all federal, state and local government web resources and services.